sensor_id;sensor_type;location;lat;lon;timestamp;temperature;humidity
33149;DHT22;19506;51.040;3.856;2022-10-23T00:01:23;19.80;99.90
33149;DHT22;19506;51.040;3.856;2022-10-23T00:03:52;19.80;99.90
33149;DHT22;19506;51.040;3.856;2022-10-23T00:06:18;19.80;99.90
33149;DHT22;19506;51.040;3.856;2022-10-23T00:08:48;19.80;99.90
33149;DHT22;19506;51.040;3.856;2022-10-23T00:11:17;19.80;99.90
33149;DHT22;19506;51.040;3.856;2022-10-23T00:13:44;19.70;99.90
33149;DHT22;19506;51.040;3.856;2022-10-23T00:16:10;19.80;99.90
33149;DHT22;19506;51.040;3.856;2022-10-23T00:18:36;19.80;99.90
33149;DHT22;19506;51.040;3.856;2022-10-23T00:21:03;19.70;99.90
33149;DHT22;19506;51.040;3.856;2022-10-23T00:23:29;19.70;99.90
33149;DHT22;19506;51.040;3.856;2022-10-23T00:25:55;19.70;99.90
33149;DHT22;19506;51.040;3.856;2022-10-23T00:28:20;19.70;99.90
33149;DHT22;19506;51.040;3.856;2022-10-23T00:30:46;19.70;99.90
33149;DHT22;19506;51.040;3.856;2022-10-23T00:33:12;19.70;99.90
33149;DHT22;19506;51.040;3.856;2022-10-23T00:35:41;19.70;99.90
33149;DHT22;19506;51.040;3.856;2022-10-23T00:38:07;19.70;99.90
33149;DHT22;19506;51.040;3.856;2022-10-23T00:40:34;19.70;99.90
33149;DHT22;19506;51.040;3.856;2022-10-23T00:43:00;19.70;99.90
33149;DHT22;19506;51.040;3.856;2022-10-23T00:45:27;19.70;99.90
33149;DHT22;19506;51.040;3.856;2022-10-23T00:47:56;19.70;99.90
33149;DHT22;19506;51.040;3.856;2022-10-23T00:50:24;19.70;99.90
33149;DHT22;19506;51.040;3.856;2022-10-23T00:52:50;19.70;99.90
33149;DHT22;19506;51.040;3.856;2022-10-23T00:55:18;19.60;99.90
33149;DHT22;19506;51.040;3.856;2022-10-23T00:57:47;19.60;99.90
33149;DHT22;19506;51.040;3.856;2022-10-23T01:00:17;19.60;99.90
33149;DHT22;19506;51.040;3.856;2022-10-23T01:02:43;19.60;99.90
33149;DHT22;19506;51.040;3.856;2022-10-23T01:05:09;19.60;99.90
33149;DHT22;19506;51.040;3.856;2022-10-23T01:07:55;19.60;99.90
33149;DHT22;19506;51.040;3.856;2022-10-23T01:10:39;19.60;99.90
33149;DHT22;19506;51.040;3.856;2022-10-23T01:16:00;19.60;99.90
33149;DHT22;19506;51.040;3.856;2022-10-23T01:21:21;19.60;99.90
33149;DHT22;19506;51.040;3.856;2022-10-23T01:29:37;19.60;99.90
33149;DHT22;19506;51.040;3.856;2022-10-23T01:32:14;19.60;99.90
33149;DHT22;19506;51.040;3.856;2022-10-23T01:34:48;19.60;99.90
33149;DHT22;19506;51.040;3.856;2022-10-23T01:37:26;19.60;99.90
33149;DHT22;19506;51.040;3.856;2022-10-23T01:39:56;19.60;99.90
33149;DHT22;19506;51.040;3.856;2022-10-23T01:42:35;19.60;99.90
33149;DHT22;19506;51.040;3.856;2022-10-23T01:45:07;19.60;99.90
33149;DHT22;19506;51.040;3.856;2022-10-23T01:47:34;19.50;99.90
33149;DHT22;19506;51.040;3.856;2022-10-23T01:50:02;19.60;99.90
33149;DHT22;19506;51.040;3.856;2022-10-23T01:52:29;19.50;99.90
33149;DHT22;19506;51.040;3.856;2022-10-23T01:54:58;19.50;99.90
33149;DHT22;19506;51.040;3.856;2022-10-23T01:57:25;19.50;99.90
33149;DHT22;19506;51.040;3.856;2022-10-23T01:59:56;19.50;99.90
33149;DHT22;19506;51.040;3.856;2022-10-23T02:02:25;19.50;99.90
33149;DHT22;19506;51.040;3.856;2022-10-23T02:05:11;19.50;99.90
33149;DHT22;19506;51.040;3.856;2022-10-23T02:07:39;19.50;99.90
33149;DHT22;19506;51.040;3.856;2022-10-23T02:10:06;19.50;99.90
33149;DHT22;19506;51.040;3.856;2022-10-23T02:18:01;19.40;99.90
33149;DHT22;19506;51.040;3.856;2022-10-23T02:23:04;19.40;99.90
33149;DHT22;19506;51.040;3.856;2022-10-23T02:25:37;19.40;99.90
33149;DHT22;19506;51.040;3.856;2022-10-23T02:28:08;19.40;99.90
33149;DHT22;19506;51.040;3.856;2022-10-23T02:30:36;19.40;99.90
33149;DHT22;19506;51.040;3.856;2022-10-23T02:33:07;19.40;99.90
33149;DHT22;19506;51.040;3.856;2022-10-23T02:35:33;19.40;99.90
33149;DHT22;19506;51.040;3.856;2022-10-23T02:38:00;19.40;99.90
33149;DHT22;19506;51.040;3.856;2022-10-23T02:40:39;19.40;99.90
33149;DHT22;19506;51.040;3.856;2022-10-23T02:43:35;19.40;99.90
33149;DHT22;19506;51.040;3.856;2022-10-23T02:46:30;19.40;99.90
33149;DHT22;19506;51.040;3.856;2022-10-23T02:49:13;19.40;99.90
33149;DHT22;19506;51.040;3.856;2022-10-23T02:52:04;19.40;99.90
33149;DHT22;19506;51.040;3.856;2022-10-23T02:57:39;19.40;99.90
33149;DHT22;19506;51.040;3.856;2022-10-23T03:00:13;19.40;99.90
33149;DHT22;19506;51.040;3.856;2022-10-23T03:02:48;19.40;99.90
33149;DHT22;19506;51.040;3.856;2022-10-23T03:05:19;19.40;99.90
33149;DHT22;19506;51.040;3.856;2022-10-23T03:07:46;19.40;99.90
33149;DHT22;19506;51.040;3.856;2022-10-23T03:10:12;19.30;99.90
33149;DHT22;19506;51.040;3.856;2022-10-23T03:12:38;19.40;99.90
33149;DHT22;19506;51.040;3.856;2022-10-23T03:15:05;19.30;99.90
33149;DHT22;19506;51.040;3.856;2022-10-23T03:17:31;19.30;99.90
33149;DHT22;19506;51.040;3.856;2022-10-23T03:19:57;19.30;99.90
33149;DHT22;19506;51.040;3.856;2022-10-23T03:22:22;19.30;99.90
33149;DHT22;19506;51.040;3.856;2022-10-23T03:24:48;19.30;99.90
33149;DHT22;19506;51.040;3.856;2022-10-23T03:27:14;19.30;99.90
33149;DHT22;19506;51.040;3.856;2022-10-23T03:29:40;19.30;99.90
33149;DHT22;19506;51.040;3.856;2022-10-23T03:32:06;19.30;99.90
33149;DHT22;19506;51.040;3.856;2022-10-23T03:34:32;19.30;99.90
33149;DHT22;19506;51.040;3.856;2022-10-23T03:36:59;19.30;99.90
33149;DHT22;19506;51.040;3.856;2022-10-23T03:39:25;19.30;99.90
33149;DHT22;19506;51.040;3.856;2022-10-23T03:41:50;19.30;99.90
33149;DHT22;19506;51.040;3.856;2022-10-23T03:44:17;19.30;99.90
33149;DHT22;19506;51.040;3.856;2022-10-23T03:46:42;19.30;99.90
33149;DHT22;19506;51.040;3.856;2022-10-23T03:49:08;19.30;99.90
33149;DHT22;19506;51.040;3.856;2022-10-23T03:51:34;19.30;99.90
33149;DHT22;19506;51.040;3.856;2022-10-23T03:54:00;19.30;99.90
33149;DHT22;19506;51.040;3.856;2022-10-23T03:56:25;19.30;99.90
33149;DHT22;19506;51.040;3.856;2022-10-23T03:58:51;19.30;99.90
33149;DHT22;19506;51.040;3.856;2022-10-23T04:01:17;19.30;99.90
33149;DHT22;19506;51.040;3.856;2022-10-23T04:03:42;19.30;99.90
33149;DHT22;19506;51.040;3.856;2022-10-23T04:06:08;19.30;99.90
33149;DHT22;19506;51.040;3.856;2022-10-23T04:08:34;19.30;99.90
33149;DHT22;19506;51.040;3.856;2022-10-23T04:11:00;19.30;99.90
33149;DHT22;19506;51.040;3.856;2022-10-23T04:13:25;19.30;99.90
33149;DHT22;19506;51.040;3.856;2022-10-23T04:15:52;19.30;99.90
33149;DHT22;19506;51.040;3.856;2022-10-23T04:18:18;19.30;99.90
33149;DHT22;19506;51.040;3.856;2022-10-23T04:20:47;19.30;99.90
33149;DHT22;19506;51.040;3.856;2022-10-23T04:23:14;19.30;99.90
33149;DHT22;19506;51.040;3.856;2022-10-23T04:25:39;19.30;99.90
33149;DHT22;19506;51.040;3.856;2022-10-23T04:28:05;19.30;99.90
33149;DHT22;19506;51.040;3.856;2022-10-23T04:30:31;19.30;99.90
33149;DHT22;19506;51.040;3.856;2022-10-23T04:32:56;19.30;99.90
33149;DHT22;19506;51.040;3.856;2022-10-23T04:35:22;19.20;99.90
33149;DHT22;19506;51.040;3.856;2022-10-23T04:37:48;19.30;99.90
33149;DHT22;19506;51.040;3.856;2022-10-23T04:40:13;19.20;99.90
33149;DHT22;19506;51.040;3.856;2022-10-23T04:42:39;19.20;99.90
33149;DHT22;19506;51.040;3.856;2022-10-23T04:45:05;19.20;99.90
33149;DHT22;19506;51.040;3.856;2022-10-23T04:47:31;19.30;99.90
33149;DHT22;19506;51.040;3.856;2022-10-23T04:49:57;19.20;99.90
33149;DHT22;19506;51.040;3.856;2022-10-23T04:52:22;19.20;99.90
33149;DHT22;19506;51.040;3.856;2022-10-23T04:54:48;19.20;99.90
33149;DHT22;19506;51.040;3.856;2022-10-23T04:57:13;19.20;99.90
33149;DHT22;19506;51.040;3.856;2022-10-23T04:59:39;19.20;99.90
33149;DHT22;19506;51.040;3.856;2022-10-23T05:02:05;19.20;99.90
33149;DHT22;19506;51.040;3.856;2022-10-23T05:04:30;19.20;99.90
33149;DHT22;19506;51.040;3.856;2022-10-23T05:06:56;19.20;99.90
33149;DHT22;19506;51.040;3.856;2022-10-23T05:09:22;19.20;99.90
33149;DHT22;19506;51.040;3.856;2022-10-23T05:11:48;19.20;99.90
33149;DHT22;19506;51.040;3.856;2022-10-23T05:14:14;19.20;99.90
33149;DHT22;19506;51.040;3.856;2022-10-23T05:19:21;19.20;99.90
33149;DHT22;19506;51.040;3.856;2022-10-23T05:21:49;19.20;99.90
33149;DHT22;19506;51.040;3.856;2022-10-23T05:24:21;19.20;99.90
33149;DHT22;19506;51.040;3.856;2022-10-23T05:26:47;19.20;99.90
33149;DHT22;19506;51.040;3.856;2022-10-23T05:29:16;19.20;99.90
33149;DHT22;19506;51.040;3.856;2022-10-23T05:31:42;19.20;99.90
33149;DHT22;19506;51.040;3.856;2022-10-23T05:34:09;19.20;99.90
33149;DHT22;19506;51.040;3.856;2022-10-23T05:36:36;19.20;99.90
33149;DHT22;19506;51.040;3.856;2022-10-23T05:39:03;19.20;99.90
33149;DHT22;19506;51.040;3.856;2022-10-23T05:41:29;19.20;99.90
33149;DHT22;19506;51.040;3.856;2022-10-23T05:43:54;19.20;99.90
33149;DHT22;19506;51.040;3.856;2022-10-23T05:46:20;19.20;99.90
33149;DHT22;19506;51.040;3.856;2022-10-23T05:48:50;19.20;99.90
33149;DHT22;19506;51.040;3.856;2022-10-23T05:51:16;19.20;99.90
33149;DHT22;19506;51.040;3.856;2022-10-23T05:53:47;19.20;99.90
33149;DHT22;19506;51.040;3.856;2022-10-23T05:56:13;19.20;99.90
33149;DHT22;19506;51.040;3.856;2022-10-23T05:58:39;19.20;99.90
33149;DHT22;19506;51.040;3.856;2022-10-23T06:01:06;19.20;99.90
33149;DHT22;19506;51.040;3.856;2022-10-23T06:03:32;19.20;99.90
33149;DHT22;19506;51.040;3.856;2022-10-23T06:05:58;19.20;99.90
33149;DHT22;19506;51.040;3.856;2022-10-23T06:08:23;19.20;99.90
33149;DHT22;19506;51.040;3.856;2022-10-23T06:10:49;19.20;99.90
33149;DHT22;19506;51.040;3.856;2022-10-23T06:13:15;19.20;99.90
33149;DHT22;19506;51.040;3.856;2022-10-23T06:15:41;19.20;99.90
33149;DHT22;19506;51.040;3.856;2022-10-23T06:18:06;19.20;99.90
33149;DHT22;19506;51.040;3.856;2022-10-23T06:20:36;19.20;99.90
33149;DHT22;19506;51.040;3.856;2022-10-23T06:23:03;19.20;99.90
33149;DHT22;19506;51.040;3.856;2022-10-23T06:25:29;19.20;99.90
33149;DHT22;19506;51.040;3.856;2022-10-23T06:27:55;19.20;99.90
33149;DHT22;19506;51.040;3.856;2022-10-23T06:30:20;19.20;99.90
33149;DHT22;19506;51.040;3.856;2022-10-23T06:32:46;19.20;99.90
33149;DHT22;19506;51.040;3.856;2022-10-23T06:35:12;19.20;99.90
33149;DHT22;19506;51.040;3.856;2022-10-23T06:37:38;19.20;99.90
33149;DHT22;19506;51.040;3.856;2022-10-23T06:40:04;19.20;99.90
33149;DHT22;19506;51.040;3.856;2022-10-23T06:42:30;19.20;99.90
33149;DHT22;19506;51.040;3.856;2022-10-23T06:44:56;19.20;99.90
33149;DHT22;19506;51.040;3.856;2022-10-23T06:47:22;19.20;99.90
33149;DHT22;19506;51.040;3.856;2022-10-23T06:49:47;19.20;99.90
33149;DHT22;19506;51.040;3.856;2022-10-23T06:52:13;19.20;99.90
33149;DHT22;19506;51.040;3.856;2022-10-23T06:54:39;19.20;99.90
33149;DHT22;19506;51.040;3.856;2022-10-23T06:57:04;19.20;99.90
33149;DHT22;19506;51.040;3.856;2022-10-23T06:59:30;19.20;99.90
33149;DHT22;19506;51.040;3.856;2022-10-23T07:01:56;19.20;99.90
33149;DHT22;19506;51.040;3.856;2022-10-23T07:04:21;19.20;99.90
33149;DHT22;19506;51.040;3.856;2022-10-23T07:06:47;19.20;99.90
33149;DHT22;19506;51.040;3.856;2022-10-23T07:09:13;19.20;99.90
33149;DHT22;19506;51.040;3.856;2022-10-23T07:11:38;19.20;99.90
33149;DHT22;19506;51.040;3.856;2022-10-23T07:14:04;19.20;99.90
33149;DHT22;19506;51.040;3.856;2022-10-23T07:16:30;19.20;99.90
33149;DHT22;19506;51.040;3.856;2022-10-23T07:18:58;19.20;99.90
33149;DHT22;19506;51.040;3.856;2022-10-23T07:21:32;19.20;99.90
33149;DHT22;19506;51.040;3.856;2022-10-23T07:24:01;19.20;99.90
33149;DHT22;19506;51.040;3.856;2022-10-23T07:26:28;19.20;99.90
33149;DHT22;19506;51.040;3.856;2022-10-23T07:28:54;19.20;99.90
33149;DHT22;19506;51.040;3.856;2022-10-23T07:31:21;19.20;99.90
33149;DHT22;19506;51.040;3.856;2022-10-23T07:33:47;19.20;99.90
33149;DHT22;19506;51.040;3.856;2022-10-23T07:36:13;19.30;99.90
33149;DHT22;19506;51.040;3.856;2022-10-23T07:38:39;19.30;99.90
33149;DHT22;19506;51.040;3.856;2022-10-23T07:41:05;19.30;99.90
33149;DHT22;19506;51.040;3.856;2022-10-23T07:43:31;19.30;99.90
33149;DHT22;19506;51.040;3.856;2022-10-23T07:45:56;19.30;99.90
33149;DHT22;19506;51.040;3.856;2022-10-23T07:48:22;19.30;99.90
33149;DHT22;19506;51.040;3.856;2022-10-23T07:50:49;19.30;99.90
33149;DHT22;19506;51.040;3.856;2022-10-23T07:53:20;19.30;99.90
33149;DHT22;19506;51.040;3.856;2022-10-23T07:55:54;19.30;99.90
33149;DHT22;19506;51.040;3.856;2022-10-23T07:58:20;19.40;99.90
33149;DHT22;19506;51.040;3.856;2022-10-23T08:00:47;19.40;99.90
33149;DHT22;19506;51.040;3.856;2022-10-23T08:03:17;19.50;99.90
33149;DHT22;19506;51.040;3.856;2022-10-23T08:05:43;19.50;99.90
33149;DHT22;19506;51.040;3.856;2022-10-23T08:08:09;19.50;99.90
33149;DHT22;19506;51.040;3.856;2022-10-23T08:10:35;19.60;99.90
33149;DHT22;19506;51.040;3.856;2022-10-23T08:13:00;19.60;99.90
33149;DHT22;19506;51.040;3.856;2022-10-23T08:15:26;19.70;99.90
33149;DHT22;19506;51.040;3.856;2022-10-23T08:17:52;19.70;99.90
33149;DHT22;19506;51.040;3.856;2022-10-23T08:20:17;19.70;99.90
33149;DHT22;19506;51.040;3.856;2022-10-23T08:22:43;19.70;99.90
33149;DHT22;19506;51.040;3.856;2022-10-23T08:25:09;19.70;99.90
33149;DHT22;19506;51.040;3.856;2022-10-23T08:27:35;19.80;99.90
33149;DHT22;19506;51.040;3.856;2022-10-23T08:30:01;19.80;99.90
33149;DHT22;19506;51.040;3.856;2022-10-23T08:32:30;19.90;99.90
33149;DHT22;19506;51.040;3.856;2022-10-23T08:34:56;19.90;99.90
33149;DHT22;19506;51.040;3.856;2022-10-23T08:37:22;19.90;99.90
33149;DHT22;19506;51.040;3.856;2022-10-23T08:39:47;20.00;99.90
33149;DHT22;19506;51.040;3.856;2022-10-23T08:42:22;20.00;99.90
33149;DHT22;19506;51.040;3.856;2022-10-23T08:48:27;20.00;99.90
33149;DHT22;19506;51.040;3.856;2022-10-23T08:51:12;20.10;99.90
33149;DHT22;19506;51.040;3.856;2022-10-23T08:56:34;20.10;99.90
33149;DHT22;19506;51.040;3.856;2022-10-23T09:02:02;20.10;99.90
33149;DHT22;19506;51.040;3.856;2022-10-23T09:04:29;20.10;99.90
33149;DHT22;19506;51.040;3.856;2022-10-23T09:12:21;20.10;99.90
33149;DHT22;19506;51.040;3.856;2022-10-23T09:17:36;20.20;99.90
33149;DHT22;19506;51.040;3.856;2022-10-23T09:22:35;20.20;99.90
33149;DHT22;19506;51.040;3.856;2022-10-23T09:25:01;20.20;99.90
33149;DHT22;19506;51.040;3.856;2022-10-23T09:27:26;20.20;99.90
33149;DHT22;19506;51.040;3.856;2022-10-23T09:29:54;20.20;99.90
33149;DHT22;19506;51.040;3.856;2022-10-23T09:32:31;20.20;99.90
33149;DHT22;19506;51.040;3.856;2022-10-23T09:34:57;20.20;99.90
33149;DHT22;19506;51.040;3.856;2022-10-23T09:37:24;20.20;99.90
33149;DHT22;19506;51.040;3.856;2022-10-23T09:40:21;20.30;99.90
33149;DHT22;19506;51.040;3.856;2022-10-23T09:42:54;20.30;99.90
33149;DHT22;19506;51.040;3.856;2022-10-23T09:45:32;20.30;99.90
33149;DHT22;19506;51.040;3.856;2022-10-23T09:48:11;20.30;99.90
33149;DHT22;19506;51.040;3.856;2022-10-23T09:50:52;20.40;99.90
33149;DHT22;19506;51.040;3.856;2022-10-23T09:53:33;20.40;99.90
33149;DHT22;19506;51.040;3.856;2022-10-23T09:56:04;20.40;99.90
33149;DHT22;19506;51.040;3.856;2022-10-23T09:58:38;20.40;99.90
33149;DHT22;19506;51.040;3.856;2022-10-23T10:01:05;20.40;99.90
33149;DHT22;19506;51.040;3.856;2022-10-23T10:03:31;20.40;99.90
33149;DHT22;19506;51.040;3.856;2022-10-23T10:05:59;20.40;99.90
33149;DHT22;19506;51.040;3.856;2022-10-23T10:08:45;20.50;99.90
33149;DHT22;19506;51.040;3.856;2022-10-23T10:17:05;20.50;99.90
33149;DHT22;19506;51.040;3.856;2022-10-23T10:27:43;20.60;99.90
33149;DHT22;19506;51.040;3.856;2022-10-23T10:30:12;20.60;99.90
33149;DHT22;19506;51.040;3.856;2022-10-23T10:32:48;20.60;99.90
33149;DHT22;19506;51.040;3.856;2022-10-23T10:40:15;20.60;99.90
33149;DHT22;19506;51.040;3.856;2022-10-23T10:45:47;20.60;99.90
33149;DHT22;19506;51.040;3.856;2022-10-23T10:56:02;20.50;99.90
33149;DHT22;19506;51.040;3.856;2022-10-23T10:58:54;20.50;99.90
33149;DHT22;19506;51.040;3.856;2022-10-23T11:01:36;20.50;99.90
33149;DHT22;19506;51.040;3.856;2022-10-23T11:07:09;20.50;99.90
33149;DHT22;19506;51.040;3.856;2022-10-23T11:09:37;20.60;99.90
33149;DHT22;19506;51.040;3.856;2022-10-23T11:12:03;20.60;99.90
33149;DHT22;19506;51.040;3.856;2022-10-23T11:14:32;20.60;99.90
33149;DHT22;19506;51.040;3.856;2022-10-23T11:17:08;20.60;99.90
33149;DHT22;19506;51.040;3.856;2022-10-23T11:22:25;20.60;99.90
33149;DHT22;19506;51.040;3.856;2022-10-23T11:39:28;20.90;99.90
33149;DHT22;19506;51.040;3.856;2022-10-23T11:44:37;21.00;99.90
33149;DHT22;19506;51.040;3.856;2022-10-23T11:47:25;21.00;99.90
33149;DHT22;19506;51.040;3.856;2022-10-23T11:52:29;21.00;99.90
33149;DHT22;19506;51.040;3.856;2022-10-23T11:55:03;21.00;99.90
33149;DHT22;19506;51.040;3.856;2022-10-23T11:57:29;21.10;99.90
33149;DHT22;19506;51.040;3.856;2022-10-23T11:59:55;21.10;99.90
33149;DHT22;19506;51.040;3.856;2022-10-23T12:02:37;21.20;99.90
33149;DHT22;19506;51.040;3.856;2022-10-23T12:05:30;21.20;99.90
33149;DHT22;19506;51.040;3.856;2022-10-23T12:07:57;21.30;99.90
33149;DHT22;19506;51.040;3.856;2022-10-23T12:13:00;21.50;99.90
33149;DHT22;19506;51.040;3.856;2022-10-23T12:15:28;21.50;99.90
33149;DHT22;19506;51.040;3.856;2022-10-23T12:18:15;21.50;99.90
33149;DHT22;19506;51.040;3.856;2022-10-23T12:20:56;21.50;99.90
33149;DHT22;19506;51.040;3.856;2022-10-23T12:26:27;21.70;99.90
33149;DHT22;19506;51.040;3.856;2022-10-23T12:39:41;22.00;99.90
33149;DHT22;19506;51.040;3.856;2022-10-23T12:42:25;22.00;99.90
33149;DHT22;19506;51.040;3.856;2022-10-23T12:47:28;22.50;99.90
33149;DHT22;19506;51.040;3.856;2022-10-23T12:49:54;22.80;99.90
33149;DHT22;19506;51.040;3.856;2022-10-23T12:52:20;23.10;99.90
33149;DHT22;19506;51.040;3.856;2022-10-23T12:54:49;23.20;99.90
33149;DHT22;19506;51.040;3.856;2022-10-23T12:57:20;23.10;99.90
33149;DHT22;19506;51.040;3.856;2022-10-23T12:59:48;23.10;99.90
33149;DHT22;19506;51.040;3.856;2022-10-23T13:02:30;23.10;99.90
33149;DHT22;19506;51.040;3.856;2022-10-23T13:04:59;22.80;99.90
33149;DHT22;19506;51.040;3.856;2022-10-23T13:07:31;22.60;99.90
33149;DHT22;19506;51.040;3.856;2022-10-23T13:09:59;22.50;99.90
33149;DHT22;19506;51.040;3.856;2022-10-23T13:12:30;22.40;99.90
33149;DHT22;19506;51.040;3.856;2022-10-23T13:17:41;22.20;99.90
33149;DHT22;19506;51.040;3.856;2022-10-23T13:22:43;22.10;99.90
33149;DHT22;19506;51.040;3.856;2022-10-23T13:25:38;22.10;99.90
33149;DHT22;19506;51.040;3.856;2022-10-23T13:30:41;22.00;99.90
33149;DHT22;19506;51.040;3.856;2022-10-23T13:33:21;22.00;99.90
33149;DHT22;19506;51.040;3.856;2022-10-23T13:35:55;21.90;99.90
33149;DHT22;19506;51.040;3.856;2022-10-23T13:38:32;21.90;99.90
33149;DHT22;19506;51.040;3.856;2022-10-23T13:41:00;21.90;99.90
33149;DHT22;19506;51.040;3.856;2022-10-23T13:43:27;21.90;99.90
33149;DHT22;19506;51.040;3.856;2022-10-23T13:45:55;21.90;99.90
33149;DHT22;19506;51.040;3.856;2022-10-23T13:48:21;21.80;99.90
33149;DHT22;19506;51.040;3.856;2022-10-23T13:50:47;21.70;99.90
33149;DHT22;19506;51.040;3.856;2022-10-23T13:53:12;21.70;99.90
33149;DHT22;19506;51.040;3.856;2022-10-23T13:55:40;21.60;99.90
33149;DHT22;19506;51.040;3.856;2022-10-23T13:58:08;21.60;99.90
33149;DHT22;19506;51.040;3.856;2022-10-23T14:00:34;21.60;99.90
33149;DHT22;19506;51.040;3.856;2022-10-23T14:03:00;21.60;99.90
33149;DHT22;19506;51.040;3.856;2022-10-23T14:05:25;21.60;99.90
33149;DHT22;19506;51.040;3.856;2022-10-23T14:07:51;21.50;99.90
33149;DHT22;19506;51.040;3.856;2022-10-23T14:10:17;21.60;99.90
33149;DHT22;19506;51.040;3.856;2022-10-23T14:12:43;21.60;99.90
33149;DHT22;19506;51.040;3.856;2022-10-23T14:15:09;21.50;99.90
33149;DHT22;19506;51.040;3.856;2022-10-23T14:17:35;21.50;99.90
33149;DHT22;19506;51.040;3.856;2022-10-23T14:20:03;21.50;99.90
33149;DHT22;19506;51.040;3.856;2022-10-23T14:22:29;21.50;99.90
33149;DHT22;19506;51.040;3.856;2022-10-23T14:24:55;21.50;99.90
33149;DHT22;19506;51.040;3.856;2022-10-23T14:27:21;21.40;99.90
33149;DHT22;19506;51.040;3.856;2022-10-23T14:29:47;21.40;99.90
33149;DHT22;19506;51.040;3.856;2022-10-23T14:32:12;21.40;99.90
33149;DHT22;19506;51.040;3.856;2022-10-23T14:34:40;21.40;99.90
33149;DHT22;19506;51.040;3.856;2022-10-23T14:37:06;21.30;99.90
33149;DHT22;19506;51.040;3.856;2022-10-23T14:39:32;21.30;99.90
33149;DHT22;19506;51.040;3.856;2022-10-23T14:41:58;21.30;99.90
33149;DHT22;19506;51.040;3.856;2022-10-23T14:44:23;21.30;99.90
33149;DHT22;19506;51.040;3.856;2022-10-23T14:46:49;21.30;99.90
33149;DHT22;19506;51.040;3.856;2022-10-23T14:49:16;21.30;99.90
33149;DHT22;19506;51.040;3.856;2022-10-23T14:51:42;21.20;99.90
33149;DHT22;19506;51.040;3.856;2022-10-23T14:54:07;21.20;99.90
33149;DHT22;19506;51.040;3.856;2022-10-23T14:56:37;21.30;99.90
33149;DHT22;19506;51.040;3.856;2022-10-23T14:59:05;21.20;99.90
33149;DHT22;19506;51.040;3.856;2022-10-23T15:01:34;21.20;99.90
33149;DHT22;19506;51.040;3.856;2022-10-23T15:04:00;21.20;99.90
33149;DHT22;19506;51.040;3.856;2022-10-23T15:06:26;21.20;99.90
33149;DHT22;19506;51.040;3.856;2022-10-23T15:08:52;21.10;99.90
33149;DHT22;19506;51.040;3.856;2022-10-23T15:11:22;21.10;99.90
33149;DHT22;19506;51.040;3.856;2022-10-23T15:13:48;21.10;99.90
33149;DHT22;19506;51.040;3.856;2022-10-23T15:16:15;21.10;99.90
33149;DHT22;19506;51.040;3.856;2022-10-23T15:18:40;21.10;99.90
33149;DHT22;19506;51.040;3.856;2022-10-23T15:21:07;21.10;99.90
33149;DHT22;19506;51.040;3.856;2022-10-23T15:23:36;21.10;99.90
33149;DHT22;19506;51.040;3.856;2022-10-23T15:26:04;21.10;99.90
33149;DHT22;19506;51.040;3.856;2022-10-23T15:28:30;21.10;99.90
33149;DHT22;19506;51.040;3.856;2022-10-23T15:30:56;21.20;99.90
33149;DHT22;19506;51.040;3.856;2022-10-23T15:33:23;21.20;99.90
33149;DHT22;19506;51.040;3.856;2022-10-23T15:35:49;21.20;99.90
33149;DHT22;19506;51.040;3.856;2022-10-23T15:38:15;21.20;99.90
33149;DHT22;19506;51.040;3.856;2022-10-23T15:40:41;21.20;99.90
33149;DHT22;19506;51.040;3.856;2022-10-23T15:43:09;21.20;99.90
33149;DHT22;19506;51.040;3.856;2022-10-23T15:45:35;21.10;99.90
33149;DHT22;19506;51.040;3.856;2022-10-23T15:48:01;21.20;99.90
33149;DHT22;19506;51.040;3.856;2022-10-23T15:50:26;21.10;99.90
33149;DHT22;19506;51.040;3.856;2022-10-23T15:52:52;21.10;99.90
33149;DHT22;19506;51.040;3.856;2022-10-23T15:55:19;21.10;99.90
33149;DHT22;19506;51.040;3.856;2022-10-23T15:57:45;21.10;99.90
33149;DHT22;19506;51.040;3.856;2022-10-23T16:00:12;21.00;99.90
33149;DHT22;19506;51.040;3.856;2022-10-23T16:02:37;21.00;99.90
33149;DHT22;19506;51.040;3.856;2022-10-23T16:05:04;21.00;99.90
33149;DHT22;19506;51.040;3.856;2022-10-23T16:07:29;21.00;99.90
33149;DHT22;19506;51.040;3.856;2022-10-23T16:09:55;20.90;99.90
33149;DHT22;19506;51.040;3.856;2022-10-23T16:12:21;20.90;99.90
33149;DHT22;19506;51.040;3.856;2022-10-23T16:14:47;20.90;99.90
33149;DHT22;19506;51.040;3.856;2022-10-23T16:17:12;20.90;99.90
33149;DHT22;19506;51.040;3.856;2022-10-23T16:19:39;20.90;99.90
33149;DHT22;19506;51.040;3.856;2022-10-23T16:22:06;20.90;99.90
33149;DHT22;19506;51.040;3.856;2022-10-23T16:24:32;20.90;99.90
33149;DHT22;19506;51.040;3.856;2022-10-23T16:26:58;20.90;99.90
33149;DHT22;19506;51.040;3.856;2022-10-23T16:29:25;20.80;99.90
33149;DHT22;19506;51.040;3.856;2022-10-23T16:31:52;20.80;99.90
33149;DHT22;19506;51.040;3.856;2022-10-23T16:34:18;20.60;99.90
33149;DHT22;19506;51.040;3.856;2022-10-23T16:36:45;20.60;99.90
33149;DHT22;19506;51.040;3.856;2022-10-23T16:39:12;20.60;99.90
33149;DHT22;19506;51.040;3.856;2022-10-23T16:41:38;20.50;99.90
33149;DHT22;19506;51.040;3.856;2022-10-23T16:44:04;20.50;99.90
33149;DHT22;19506;51.040;3.856;2022-10-23T16:46:30;20.50;99.90
33149;DHT22;19506;51.040;3.856;2022-10-23T16:48:56;20.50;99.90
33149;DHT22;19506;51.040;3.856;2022-10-23T16:51:25;20.50;99.90
33149;DHT22;19506;51.040;3.856;2022-10-23T16:53:52;20.50;99.90
33149;DHT22;19506;51.040;3.856;2022-10-23T16:56:21;20.40;99.90
33149;DHT22;19506;51.040;3.856;2022-10-23T16:58:47;20.40;99.90
33149;DHT22;19506;51.040;3.856;2022-10-23T17:01:16;20.40;99.90
33149;DHT22;19506;51.040;3.856;2022-10-23T17:03:44;20.40;99.90
33149;DHT22;19506;51.040;3.856;2022-10-23T17:06:14;20.40;99.90
33149;DHT22;19506;51.040;3.856;2022-10-23T17:08:40;20.40;99.90
33149;DHT22;19506;51.040;3.856;2022-10-23T17:11:10;20.40;99.90
33149;DHT22;19506;51.040;3.856;2022-10-23T17:13:42;20.40;99.90
33149;DHT22;19506;51.040;3.856;2022-10-23T17:16:10;20.40;99.90
33149;DHT22;19506;51.040;3.856;2022-10-23T17:18:37;20.40;99.90
33149;DHT22;19506;51.040;3.856;2022-10-23T17:21:03;20.30;99.90
33149;DHT22;19506;51.040;3.856;2022-10-23T17:23:29;20.30;99.90
33149;DHT22;19506;51.040;3.856;2022-10-23T17:25:55;20.30;99.90
33149;DHT22;19506;51.040;3.856;2022-10-23T17:28:22;20.30;99.90
33149;DHT22;19506;51.040;3.856;2022-10-23T17:30:48;20.30;99.90
33149;DHT22;19506;51.040;3.856;2022-10-23T17:33:15;20.30;99.90
33149;DHT22;19506;51.040;3.856;2022-10-23T17:35:41;20.30;99.90
33149;DHT22;19506;51.040;3.856;2022-10-23T17:38:09;20.30;99.90
33149;DHT22;19506;51.040;3.856;2022-10-23T17:40:34;20.30;99.90
33149;DHT22;19506;51.040;3.856;2022-10-23T17:43:00;20.30;99.90
33149;DHT22;19506;51.040;3.856;2022-10-23T17:45:26;20.30;99.90